sensor_id;sensor_type;location;lat;lon;timestamp;temperature;humidity
30648;DHT22;17683;53.360;9.736;2024-01-30T00:01:58;4.60;99.90
30648;DHT22;17683;53.360;9.736;2024-01-30T00:04:24;4.60;99.90
30648;DHT22;17683;53.360;9.736;2024-01-30T00:06:51;4.60;99.90
30648;DHT22;17683;53.360;9.736;2024-01-30T00:09:18;4.50;99.90
30648;DHT22;17683;53.360;9.736;2024-01-30T00:11:44;4.50;99.90
30648;DHT22;17683;53.360;9.736;2024-01-30T00:14:09;4.50;99.90
30648;DHT22;17683;53.360;9.736;2024-01-30T00:16:35;4.50;99.90
30648;DHT22;17683;53.360;9.736;2024-01-30T00:19:01;4.40;99.90
30648;DHT22;17683;53.360;9.736;2024-01-30T00:21:27;4.40;99.90
30648;DHT22;17683;53.360;9.736;2024-01-30T00:23:53;4.30;99.90
30648;DHT22;17683;53.360;9.736;2024-01-30T00:26:19;4.30;99.90
30648;DHT22;17683;53.360;9.736;2024-01-30T00:28:46;4.30;99.90
30648;DHT22;17683;53.360;9.736;2024-01-30T00:31:11;4.20;99.90
30648;DHT22;17683;53.360;9.736;2024-01-30T00:33:41;4.20;99.90
30648;DHT22;17683;53.360;9.736;2024-01-30T00:36:09;4.20;99.90
30648;DHT22;17683;53.360;9.736;2024-01-30T00:38:35;4.20;99.90
30648;DHT22;17683;53.360;9.736;2024-01-30T00:41:01;4.10;99.90
30648;DHT22;17683;53.360;9.736;2024-01-30T00:43:30;4.10;99.90
30648;DHT22;17683;53.360;9.736;2024-01-30T00:45:56;4.10;99.90
30648;DHT22;17683;53.360;9.736;2024-01-30T00:48:23;4.10;99.90
30648;DHT22;17683;53.360;9.736;2024-01-30T00:50:49;4.10;99.90
30648;DHT22;17683;53.360;9.736;2024-01-30T00:53:15;4.00;99.90
30648;DHT22;17683;53.360;9.736;2024-01-30T00:55:41;4.00;99.90
30648;DHT22;17683;53.360;9.736;2024-01-30T00:58:06;4.00;99.90
30648;DHT22;17683;53.360;9.736;2024-01-30T01:00:32;4.00;99.90
30648;DHT22;17683;53.360;9.736;2024-01-30T01:03:01;4.00;99.90
30648;DHT22;17683;53.360;9.736;2024-01-30T01:05:27;3.90;99.90
30648;DHT22;17683;53.360;9.736;2024-01-30T01:07:52;3.90;99.90
30648;DHT22;17683;53.360;9.736;2024-01-30T01:10:18;3.90;99.90
30648;DHT22;17683;53.360;9.736;2024-01-30T01:12:45;3.90;99.90
30648;DHT22;17683;53.360;9.736;2024-01-30T01:15:11;3.90;99.90
30648;DHT22;17683;53.360;9.736;2024-01-30T01:17:38;3.80;99.90
30648;DHT22;17683;53.360;9.736;2024-01-30T01:20:05;3.80;99.90
30648;DHT22;17683;53.360;9.736;2024-01-30T01:22:32;3.80;99.90
30648;DHT22;17683;53.360;9.736;2024-01-30T01:24:58;3.80;99.90
30648;DHT22;17683;53.360;9.736;2024-01-30T01:27:24;3.80;99.90
30648;DHT22;17683;53.360;9.736;2024-01-30T01:29:51;3.70;99.90
30648;DHT22;17683;53.360;9.736;2024-01-30T01:32:17;3.70;99.90
30648;DHT22;17683;53.360;9.736;2024-01-30T01:34:42;3.70;99.90
30648;DHT22;17683;53.360;9.736;2024-01-30T01:37:08;3.70;99.90
30648;DHT22;17683;53.360;9.736;2024-01-30T01:39:34;3.70;99.90
30648;DHT22;17683;53.360;9.736;2024-01-30T01:41:59;3.70;99.90
30648;DHT22;17683;53.360;9.736;2024-01-30T01:44:26;3.70;99.90
30648;DHT22;17683;53.360;9.736;2024-01-30T01:46:52;3.70;99.90
30648;DHT22;17683;53.360;9.736;2024-01-30T01:49:19;3.70;99.90
30648;DHT22;17683;53.360;9.736;2024-01-30T01:51:47;3.70;99.90
30648;DHT22;17683;53.360;9.736;2024-01-30T01:54:14;3.80;99.90
30648;DHT22;17683;53.360;9.736;2024-01-30T01:56:42;3.80;99.90
30648;DHT22;17683;53.360;9.736;2024-01-30T01:59:09;3.80;99.90
30648;DHT22;17683;53.360;9.736;2024-01-30T02:01:36;3.90;99.90
30648;DHT22;17683;53.360;9.736;2024-01-30T02:04:02;3.90;99.90
30648;DHT22;17683;53.360;9.736;2024-01-30T02:06:29;3.90;99.90
30648;DHT22;17683;53.360;9.736;2024-01-30T02:08:55;3.90;99.90
30648;DHT22;17683;53.360;9.736;2024-01-30T02:11:22;3.90;99.90
30648;DHT22;17683;53.360;9.736;2024-01-30T02:13:48;3.90;99.90
30648;DHT22;17683;53.360;9.736;2024-01-30T02:16:14;3.90;99.90
30648;DHT22;17683;53.360;9.736;2024-01-30T02:18:40;3.90;99.90
30648;DHT22;17683;53.360;9.736;2024-01-30T02:21:10;3.80;99.90
30648;DHT22;17683;53.360;9.736;2024-01-30T02:23:36;3.80;99.90
30648;DHT22;17683;53.360;9.736;2024-01-30T02:26:03;3.80;99.90
30648;DHT22;17683;53.360;9.736;2024-01-30T02:28:29;3.80;99.90
30648;DHT22;17683;53.360;9.736;2024-01-30T02:30:54;3.80;99.90
30648;DHT22;17683;53.360;9.736;2024-01-30T02:33:20;3.80;99.90
30648;DHT22;17683;53.360;9.736;2024-01-30T02:35:47;3.80;99.90
30648;DHT22;17683;53.360;9.736;2024-01-30T02:38:15;3.70;99.90
30648;DHT22;17683;53.360;9.736;2024-01-30T02:40:40;3.80;99.90
30648;DHT22;17683;53.360;9.736;2024-01-30T02:43:06;3.80;99.90
30648;DHT22;17683;53.360;9.736;2024-01-30T02:45:32;3.80;99.90
30648;DHT22;17683;53.360;9.736;2024-01-30T02:47:57;3.80;99.90
30648;DHT22;17683;53.360;9.736;2024-01-30T02:50:23;3.80;99.90
30648;DHT22;17683;53.360;9.736;2024-01-30T02:52:49;3.80;99.90
30648;DHT22;17683;53.360;9.736;2024-01-30T02:55:15;3.80;99.90
30648;DHT22;17683;53.360;9.736;2024-01-30T02:57:43;3.80;99.90
30648;DHT22;17683;53.360;9.736;2024-01-30T03:00:09;3.80;99.90
30648;DHT22;17683;53.360;9.736;2024-01-30T03:02:36;3.80;99.90
30648;DHT22;17683;53.360;9.736;2024-01-30T03:05:02;3.80;99.90
30648;DHT22;17683;53.360;9.736;2024-01-30T03:07:29;3.80;99.90
30648;DHT22;17683;53.360;9.736;2024-01-30T03:09:55;3.80;99.90
30648;DHT22;17683;53.360;9.736;2024-01-30T03:12:21;3.80;99.90
30648;DHT22;17683;53.360;9.736;2024-01-30T03:14:47;3.70;99.90
30648;DHT22;17683;53.360;9.736;2024-01-30T03:17:13;3.70;99.90
30648;DHT22;17683;53.360;9.736;2024-01-30T03:19:39;3.70;99.90
30648;DHT22;17683;53.360;9.736;2024-01-30T03:22:05;3.70;99.90
30648;DHT22;17683;53.360;9.736;2024-01-30T03:24:30;3.60;99.90
30648;DHT22;17683;53.360;9.736;2024-01-30T03:26:56;3.60;99.90
30648;DHT22;17683;53.360;9.736;2024-01-30T03:29:22;3.60;99.90
30648;DHT22;17683;53.360;9.736;2024-01-30T03:31:47;3.60;99.90
30648;DHT22;17683;53.360;9.736;2024-01-30T03:34:13;3.60;99.90
30648;DHT22;17683;53.360;9.736;2024-01-30T03:36:39;3.60;99.90
30648;DHT22;17683;53.360;9.736;2024-01-30T03:39:05;3.60;99.90
30648;DHT22;17683;53.360;9.736;2024-01-30T03:41:32;3.60;99.90
30648;DHT22;17683;53.360;9.736;2024-01-30T03:43:58;3.60;99.90
30648;DHT22;17683;53.360;9.736;2024-01-30T03:46:24;3.60;99.90
30648;DHT22;17683;53.360;9.736;2024-01-30T03:48:50;3.60;99.90
30648;DHT22;17683;53.360;9.736;2024-01-30T03:51:16;3.60;99.90
30648;DHT22;17683;53.360;9.736;2024-01-30T03:53:45;3.50;99.90
30648;DHT22;17683;53.360;9.736;2024-01-30T03:56:13;3.50;99.90
30648;DHT22;17683;53.360;9.736;2024-01-30T03:58:40;3.50;99.90
30648;DHT22;17683;53.360;9.736;2024-01-30T04:01:05;3.50;99.90
30648;DHT22;17683;53.360;9.736;2024-01-30T04:03:31;3.50;99.90
30648;DHT22;17683;53.360;9.736;2024-01-30T04:05:57;3.50;99.90
30648;DHT22;17683;53.360;9.736;2024-01-30T04:08:22;3.50;99.90
30648;DHT22;17683;53.360;9.736;2024-01-30T04:10:48;3.40;99.90
30648;DHT22;17683;53.360;9.736;2024-01-30T04:13:14;3.40;99.90
30648;DHT22;17683;53.360;9.736;2024-01-30T04:15:40;3.50;99.90
30648;DHT22;17683;53.360;9.736;2024-01-30T04:18:06;3.40;99.90
30648;DHT22;17683;53.360;9.736;2024-01-30T04:20:31;3.40;99.90
30648;DHT22;17683;53.360;9.736;2024-01-30T04:22:57;3.40;99.90
30648;DHT22;17683;53.360;9.736;2024-01-30T04:25:23;3.40;99.90
30648;DHT22;17683;53.360;9.736;2024-01-30T04:27:49;3.40;99.90
30648;DHT22;17683;53.360;9.736;2024-01-30T04:30:15;3.40;99.90
30648;DHT22;17683;53.360;9.736;2024-01-30T04:32:41;3.30;99.90
30648;DHT22;17683;53.360;9.736;2024-01-30T04:35:07;3.30;99.90
30648;DHT22;17683;53.360;9.736;2024-01-30T04:37:32;3.30;99.90
30648;DHT22;17683;53.360;9.736;2024-01-30T04:39:58;3.30;99.90
30648;DHT22;17683;53.360;9.736;2024-01-30T04:42:24;3.20;99.90
30648;DHT22;17683;53.360;9.736;2024-01-30T04:44:50;3.20;99.90
30648;DHT22;17683;53.360;9.736;2024-01-30T04:47:16;3.20;99.90
30648;DHT22;17683;53.360;9.736;2024-01-30T04:49:42;3.20;99.90
30648;DHT22;17683;53.360;9.736;2024-01-30T04:52:08;3.20;99.90
30648;DHT22;17683;53.360;9.736;2024-01-30T04:54:35;3.20;99.90
30648;DHT22;17683;53.360;9.736;2024-01-30T04:57:04;3.10;99.90
30648;DHT22;17683;53.360;9.736;2024-01-30T04:59:34;3.20;99.90
30648;DHT22;17683;53.360;9.736;2024-01-30T05:01:59;3.20;99.90
30648;DHT22;17683;53.360;9.736;2024-01-30T05:04:25;3.10;99.90
30648;DHT22;17683;53.360;9.736;2024-01-30T05:06:51;3.20;99.90
30648;DHT22;17683;53.360;9.736;2024-01-30T05:09:17;3.10;99.90
30648;DHT22;17683;53.360;9.736;2024-01-30T05:11:42;3.10;99.90
30648;DHT22;17683;53.360;9.736;2024-01-30T05:14:08;3.10;99.90
30648;DHT22;17683;53.360;9.736;2024-01-30T05:16:37;3.10;99.90
30648;DHT22;17683;53.360;9.736;2024-01-30T05:19:03;3.10;99.90
30648;DHT22;17683;53.360;9.736;2024-01-30T05:21:29;3.10;99.90
30648;DHT22;17683;53.360;9.736;2024-01-30T05:23:54;3.20;99.90
30648;DHT22;17683;53.360;9.736;2024-01-30T05:26:20;3.10;99.90
30648;DHT22;17683;53.360;9.736;2024-01-30T05:28:48;3.20;99.90
30648;DHT22;17683;53.360;9.736;2024-01-30T05:31:14;3.10;99.90
30648;DHT22;17683;53.360;9.736;2024-01-30T05:33:40;3.20;99.90
30648;DHT22;17683;53.360;9.736;2024-01-30T05:36:06;3.10;99.90
30648;DHT22;17683;53.360;9.736;2024-01-30T05:38:32;3.10;99.90
30648;DHT22;17683;53.360;9.736;2024-01-30T05:40:58;3.10;99.90
30648;DHT22;17683;53.360;9.736;2024-01-30T05:43:24;3.10;99.90
30648;DHT22;17683;53.360;9.736;2024-01-30T05:45:50;3.10;99.90
30648;DHT22;17683;53.360;9.736;2024-01-30T05:48:16;3.10;99.90
30648;DHT22;17683;53.360;9.736;2024-01-30T05:50:41;3.20;99.90
30648;DHT22;17683;53.360;9.736;2024-01-30T05:53:07;3.20;99.90
30648;DHT22;17683;53.360;9.736;2024-01-30T05:55:33;3.20;99.90
30648;DHT22;17683;53.360;9.736;2024-01-30T05:57:59;3.20;99.90
30648;DHT22;17683;53.360;9.736;2024-01-30T06:00:24;3.20;99.90
30648;DHT22;17683;53.360;9.736;2024-01-30T06:02:50;3.20;99.90
30648;DHT22;17683;53.360;9.736;2024-01-30T06:05:16;3.20;99.90
30648;DHT22;17683;53.360;9.736;2024-01-30T06:07:42;3.30;99.90
30648;DHT22;17683;53.360;9.736;2024-01-30T06:10:08;3.30;99.90
30648;DHT22;17683;53.360;9.736;2024-01-30T06:12:34;3.30;99.90
30648;DHT22;17683;53.360;9.736;2024-01-30T06:15:01;3.40;99.90
30648;DHT22;17683;53.360;9.736;2024-01-30T06:17:27;3.40;99.90
30648;DHT22;17683;53.360;9.736;2024-01-30T06:19:53;3.40;99.90
30648;DHT22;17683;53.360;9.736;2024-01-30T06:22:20;3.40;99.90
30648;DHT22;17683;53.360;9.736;2024-01-30T06:24:45;3.40;99.90
30648;DHT22;17683;53.360;9.736;2024-01-30T06:27:14;3.40;99.90
30648;DHT22;17683;53.360;9.736;2024-01-30T06:29:42;3.50;99.90
30648;DHT22;17683;53.360;9.736;2024-01-30T06:32:08;3.50;99.90
30648;DHT22;17683;53.360;9.736;2024-01-30T06:34:34;3.50;99.90
30648;DHT22;17683;53.360;9.736;2024-01-30T06:37:00;3.50;99.90
30648;DHT22;17683;53.360;9.736;2024-01-30T06:39:26;3.50;99.90
30648;DHT22;17683;53.360;9.736;2024-01-30T06:41:52;3.50;99.90
30648;DHT22;17683;53.360;9.736;2024-01-30T06:44:18;3.50;99.90
30648;DHT22;17683;53.360;9.736;2024-01-30T06:46:44;3.50;99.90
30648;DHT22;17683;53.360;9.736;2024-01-30T06:49:10;3.60;99.90
30648;DHT22;17683;53.360;9.736;2024-01-30T06:51:36;3.60;99.90
30648;DHT22;17683;53.360;9.736;2024-01-30T06:54:01;3.60;99.90
30648;DHT22;17683;53.360;9.736;2024-01-30T06:56:28;3.60;99.90
30648;DHT22;17683;53.360;9.736;2024-01-30T06:58:54;3.60;99.90
30648;DHT22;17683;53.360;9.736;2024-01-30T07:01:19;3.60;99.90
30648;DHT22;17683;53.360;9.736;2024-01-30T07:03:45;3.60;99.90
30648;DHT22;17683;53.360;9.736;2024-01-30T07:06:11;3.50;99.90
30648;DHT22;17683;53.360;9.736;2024-01-30T07:08:37;3.50;99.90
30648;DHT22;17683;53.360;9.736;2024-01-30T07:11:06;3.60;99.90
30648;DHT22;17683;53.360;9.736;2024-01-30T07:13:32;3.50;99.90
30648;DHT22;17683;53.360;9.736;2024-01-30T07:15:58;3.50;99.90
30648;DHT22;17683;53.360;9.736;2024-01-30T07:18:24;3.50;99.90
30648;DHT22;17683;53.360;9.736;2024-01-30T07:20:50;3.50;99.90
30648;DHT22;17683;53.360;9.736;2024-01-30T07:23:16;3.50;99.90
30648;DHT22;17683;53.360;9.736;2024-01-30T07:25:46;3.60;99.90
30648;DHT22;17683;53.360;9.736;2024-01-30T07:28:14;3.50;99.90
30648;DHT22;17683;53.360;9.736;2024-01-30T07:30:42;3.60;99.90
30648;DHT22;17683;53.360;9.736;2024-01-30T07:33:08;3.50;99.90
30648;DHT22;17683;53.360;9.736;2024-01-30T07:35:35;3.50;99.90
30648;DHT22;17683;53.360;9.736;2024-01-30T07:38:01;3.60;99.90
30648;DHT22;17683;53.360;9.736;2024-01-30T07:40:27;3.50;99.90
30648;DHT22;17683;53.360;9.736;2024-01-30T07:42:56;3.50;99.90
30648;DHT22;17683;53.360;9.736;2024-01-30T07:45:22;3.50;99.90
30648;DHT22;17683;53.360;9.736;2024-01-30T07:47:50;3.60;99.90
30648;DHT22;17683;53.360;9.736;2024-01-30T07:50:15;3.60;99.90
30648;DHT22;17683;53.360;9.736;2024-01-30T07:52:42;3.60;99.90
30648;DHT22;17683;53.360;9.736;2024-01-30T07:55:08;3.60;99.90
30648;DHT22;17683;53.360;9.736;2024-01-30T07:57:34;3.60;99.90
30648;DHT22;17683;53.360;9.736;2024-01-30T08:00:00;3.60;99.90
30648;DHT22;17683;53.360;9.736;2024-01-30T08:02:26;3.60;99.90
30648;DHT22;17683;53.360;9.736;2024-01-30T08:04:52;3.70;99.90
30648;DHT22;17683;53.360;9.736;2024-01-30T08:07:17;3.70;99.90
30648;DHT22;17683;53.360;9.736;2024-01-30T08:09:43;3.70;99.90
30648;DHT22;17683;53.360;9.736;2024-01-30T08:12:09;3.80;99.90
30648;DHT22;17683;53.360;9.736;2024-01-30T08:14:35;3.80;99.90
30648;DHT22;17683;53.360;9.736;2024-01-30T08:17:01;3.80;99.90
30648;DHT22;17683;53.360;9.736;2024-01-30T08:19:27;3.80;99.90
30648;DHT22;17683;53.360;9.736;2024-01-30T08:21:52;3.80;99.90
30648;DHT22;17683;53.360;9.736;2024-01-30T08:24:18;3.80;99.90
30648;DHT22;17683;53.360;9.736;2024-01-30T08:26:44;3.90;99.90
30648;DHT22;17683;53.360;9.736;2024-01-30T08:29:10;3.90;99.90
30648;DHT22;17683;53.360;9.736;2024-01-30T08:31:35;4.00;99.90
30648;DHT22;17683;53.360;9.736;2024-01-30T08:34:01;4.00;99.90
30648;DHT22;17683;53.360;9.736;2024-01-30T08:36:27;4.10;99.90
30648;DHT22;17683;53.360;9.736;2024-01-30T08:38:53;4.10;99.90
30648;DHT22;17683;53.360;9.736;2024-01-30T08:41:18;4.20;99.90
30648;DHT22;17683;53.360;9.736;2024-01-30T08:43:44;4.20;99.90
30648;DHT22;17683;53.360;9.736;2024-01-30T08:46:11;4.30;99.90
30648;DHT22;17683;53.360;9.736;2024-01-30T08:48:37;4.30;99.90
30648;DHT22;17683;53.360;9.736;2024-01-30T08:51:02;4.30;99.90
30648;DHT22;17683;53.360;9.736;2024-01-30T08:53:28;4.40;99.90
30648;DHT22;17683;53.360;9.736;2024-01-30T08:55:57;4.40;99.90
30648;DHT22;17683;53.360;9.736;2024-01-30T08:58:24;4.50;99.90
30648;DHT22;17683;53.360;9.736;2024-01-30T09:00:50;4.50;99.90
30648;DHT22;17683;53.360;9.736;2024-01-30T09:03:17;4.60;99.90
30648;DHT22;17683;53.360;9.736;2024-01-30T09:05:42;4.70;99.90
30648;DHT22;17683;53.360;9.736;2024-01-30T09:08:08;4.70;99.90
30648;DHT22;17683;53.360;9.736;2024-01-30T09:10:35;4.80;99.90
30648;DHT22;17683;53.360;9.736;2024-01-30T09:13:01;4.80;99.90
30648;DHT22;17683;53.360;9.736;2024-01-30T09:15:27;4.90;99.90
30648;DHT22;17683;53.360;9.736;2024-01-30T09:17:53;5.00;99.90
30648;DHT22;17683;53.360;9.736;2024-01-30T09:20:18;5.00;99.90
30648;DHT22;17683;53.360;9.736;2024-01-30T09:22:45;5.10;99.90
30648;DHT22;17683;53.360;9.736;2024-01-30T09:25:11;5.10;99.90
30648;DHT22;17683;53.360;9.736;2024-01-30T09:27:37;5.10;99.90
30648;DHT22;17683;53.360;9.736;2024-01-30T09:30:03;5.20;99.90
30648;DHT22;17683;53.360;9.736;2024-01-30T09:32:29;5.20;99.90
30648;DHT22;17683;53.360;9.736;2024-01-30T09:34:55;5.30;99.90
30648;DHT22;17683;53.360;9.736;2024-01-30T09:37:23;5.40;99.90
30648;DHT22;17683;53.360;9.736;2024-01-30T09:39:49;5.40;99.90
30648;DHT22;17683;53.360;9.736;2024-01-30T09:42:26;5.50;99.90
30648;DHT22;17683;53.360;9.736;2024-01-30T09:44:53;5.60;99.90
30648;DHT22;17683;53.360;9.736;2024-01-30T09:47:19;5.70;99.90
30648;DHT22;17683;53.360;9.736;2024-01-30T09:49:46;5.80;99.90
30648;DHT22;17683;53.360;9.736;2024-01-30T09:52:12;5.90;99.90
30648;DHT22;17683;53.360;9.736;2024-01-30T09:54:38;6.00;99.90
30648;DHT22;17683;53.360;9.736;2024-01-30T09:57:04;6.10;99.90
30648;DHT22;17683;53.360;9.736;2024-01-30T09:59:31;6.20;99.90
30648;DHT22;17683;53.360;9.736;2024-01-30T10:01:57;6.30;99.90
30648;DHT22;17683;53.360;9.736;2024-01-30T10:04:23;6.40;99.90
30648;DHT22;17683;53.360;9.736;2024-01-30T10:06:50;6.40;99.90
30648;DHT22;17683;53.360;9.736;2024-01-30T10:09:16;6.50;99.90
30648;DHT22;17683;53.360;9.736;2024-01-30T10:11:42;6.60;99.90
30648;DHT22;17683;53.360;9.736;2024-01-30T10:14:08;6.80;99.90
30648;DHT22;17683;53.360;9.736;2024-01-30T10:16:36;6.90;99.90
30648;DHT22;17683;53.360;9.736;2024-01-30T10:19:02;7.00;99.90
30648;DHT22;17683;53.360;9.736;2024-01-30T10:21:29;7.10;99.90
30648;DHT22;17683;53.360;9.736;2024-01-30T10:23:55;7.20;99.90
30648;DHT22;17683;53.360;9.736;2024-01-30T10:26:21;7.20;99.90
30648;DHT22;17683;53.360;9.736;2024-01-30T10:28:48;7.30;99.90
30648;DHT22;17683;53.360;9.736;2024-01-30T10:31:18;7.40;99.90
30648;DHT22;17683;53.360;9.736;2024-01-30T10:33:46;7.40;99.90
30648;DHT22;17683;53.360;9.736;2024-01-30T10:36:13;7.50;99.90
30648;DHT22;17683;53.360;9.736;2024-01-30T10:38:42;7.60;99.90
30648;DHT22;17683;53.360;9.736;2024-01-30T10:41:11;7.70;99.90
30648;DHT22;17683;53.360;9.736;2024-01-30T10:43:49;7.70;99.90
30648;DHT22;17683;53.360;9.736;2024-01-30T10:46:20;7.80;99.90
30648;DHT22;17683;53.360;9.736;2024-01-30T10:48:58;7.80;99.90
30648;DHT22;17683;53.360;9.736;2024-01-30T10:51:26;7.80;99.90
30648;DHT22;17683;53.360;9.736;2024-01-30T10:53:56;7.80;99.90
30648;DHT22;17683;53.360;9.736;2024-01-30T10:56:23;7.90;99.90
30648;DHT22;17683;53.360;9.736;2024-01-30T10:58:50;7.90;99.90
30648;DHT22;17683;53.360;9.736;2024-01-30T11:01:22;7.90;99.90
30648;DHT22;17683;53.360;9.736;2024-01-30T11:03:57;8.00;99.90
30648;DHT22;17683;53.360;9.736;2024-01-30T11:06:25;8.00;99.90
30648;DHT22;17683;53.360;9.736;2024-01-30T11:09:04;8.00;99.90
30648;DHT22;17683;53.360;9.736;2024-01-30T11:12:04;8.00;99.90
30648;DHT22;17683;53.360;9.736;2024-01-30T11:14:30;8.10;99.90
30648;DHT22;17683;53.360;9.736;2024-01-30T11:16:59;8.10;99.90
30648;DHT22;17683;53.360;9.736;2024-01-30T11:19:31;8.10;99.90
30648;DHT22;17683;53.360;9.736;2024-01-30T11:21:57;8.20;99.90
30648;DHT22;17683;53.360;9.736;2024-01-30T11:24:23;8.20;99.90
30648;DHT22;17683;53.360;9.736;2024-01-30T11:26:55;8.20;99.90
30648;DHT22;17683;53.360;9.736;2024-01-30T11:29:25;8.20;99.90
30648;DHT22;17683;53.360;9.736;2024-01-30T11:31:58;8.20;99.90
30648;DHT22;17683;53.360;9.736;2024-01-30T11:34:24;8.20;99.90
30648;DHT22;17683;53.360;9.736;2024-01-30T11:36:59;8.30;99.90
30648;DHT22;17683;53.360;9.736;2024-01-30T11:39:26;8.30;99.90
30648;DHT22;17683;53.360;9.736;2024-01-30T11:41:52;8.30;99.90
30648;DHT22;17683;53.360;9.736;2024-01-30T11:44:22;8.30;99.90
30648;DHT22;17683;53.360;9.736;2024-01-30T11:46:49;8.30;99.90
30648;DHT22;17683;53.360;9.736;2024-01-30T11:49:15;8.30;99.90
30648;DHT22;17683;53.360;9.736;2024-01-30T11:51:42;8.30;99.90
30648;DHT22;17683;53.360;9.736;2024-01-30T11:54:08;8.40;99.90
30648;DHT22;17683;53.360;9.736;2024-01-30T11:56:34;8.40;99.90
30648;DHT22;17683;53.360;9.736;2024-01-30T11:59:01;8.40;99.90
30648;DHT22;17683;53.360;9.736;2024-01-30T12:01:27;8.50;99.90
30648;DHT22;17683;53.360;9.736;2024-01-30T12:03:53;8.50;99.90
30648;DHT22;17683;53.360;9.736;2024-01-30T12:06:18;8.50;99.90
30648;DHT22;17683;53.360;9.736;2024-01-30T12:08:59;8.50;99.90
30648;DHT22;17683;53.360;9.736;2024-01-30T12:11:26;8.60;99.90
30648;DHT22;17683;53.360;9.736;2024-01-30T12:13:53;8.60;99.90
30648;DHT22;17683;53.360;9.736;2024-01-30T12:16:20;8.60;99.90
30648;DHT22;17683;53.360;9.736;2024-01-30T12:18:46;8.60;99.90
30648;DHT22;17683;53.360;9.736;2024-01-30T12:21:12;8.70;99.90
30648;DHT22;17683;53.360;9.736;2024-01-30T12:23:37;8.70;99.90
30648;DHT22;17683;53.360;9.736;2024-01-30T12:26:04;8.70;99.90
30648;DHT22;17683;53.360;9.736;2024-01-30T12:28:33;8.80;99.90
30648;DHT22;17683;53.360;9.736;2024-01-30T12:31:05;8.80;99.90
30648;DHT22;17683;53.360;9.736;2024-01-30T12:33:31;8.80;99.90
30648;DHT22;17683;53.360;9.736;2024-01-30T12:36:01;8.80;99.90
30648;DHT22;17683;53.360;9.736;2024-01-30T12:38:27;8.80;99.90
30648;DHT22;17683;53.360;9.736;2024-01-30T12:40:56;8.80;99.90
30648;DHT22;17683;53.360;9.736;2024-01-30T12:43:25;8.90;99.90
30648;DHT22;17683;53.360;9.736;2024-01-30T12:45:52;8.90;99.90
30648;DHT22;17683;53.360;9.736;2024-01-30T12:48:18;8.90;99.90
30648;DHT22;17683;53.360;9.736;2024-01-30T12:50:44;8.90;99.90
30648;DHT22;17683;53.360;9.736;2024-01-30T12:53:10;8.90;99.90
30648;DHT22;17683;53.360;9.736;2024-01-30T12:55:36;8.90;99.90
30648;DHT22;17683;53.360;9.736;2024-01-30T12:58:01;8.90;99.90
30648;DHT22;17683;53.360;9.736;2024-01-30T13:00:28;8.90;99.90
30648;DHT22;17683;53.360;9.736;2024-01-30T13:02:54;8.90;99.90
30648;DHT22;17683;53.360;9.736;2024-01-30T13:05:20;8.90;99.90
30648;DHT22;17683;53.360;9.736;2024-01-30T13:07:45;8.90;99.90
30648;DHT22;17683;53.360;9.736;2024-01-30T13:10:11;8.90;99.90
30648;DHT22;17683;53.360;9.736;2024-01-30T13:12:37;8.90;99.90
30648;DHT22;17683;53.360;9.736;2024-01-30T13:15:04;8.90;99.90
30648;DHT22;17683;53.360;9.736;2024-01-30T13:17:31;8.90;99.90
30648;DHT22;17683;53.360;9.736;2024-01-30T13:19:57;8.90;99.90
30648;DHT22;17683;53.360;9.736;2024-01-30T13:22:23;8.90;99.90
30648;DHT22;17683;53.360;9.736;2024-01-30T13:24:49;8.90;99.90
30648;DHT22;17683;53.360;9.736;2024-01-30T13:27:15;8.90;99.90
30648;DHT22;17683;53.360;9.736;2024-01-30T13:29:41;8.90;99.90
30648;DHT22;17683;53.360;9.736;2024-01-30T13:32:09;8.90;99.90
30648;DHT22;17683;53.360;9.736;2024-01-30T13:34:35;8.90;99.90
30648;DHT22;17683;53.360;9.736;2024-01-30T13:37:01;9.00;99.90
30648;DHT22;17683;53.360;9.736;2024-01-30T13:39:27;8.90;99.90
30648;DHT22;17683;53.360;9.736;2024-01-30T13:41:53;9.00;99.90
30648;DHT22;17683;53.360;9.736;2024-01-30T13:44:19;9.00;99.90
30648;DHT22;17683;53.360;9.736;2024-01-30T13:46:46;9.00;99.90
30648;DHT22;17683;53.360;9.736;2024-01-30T13:49:12;9.00;99.90
30648;DHT22;17683;53.360;9.736;2024-01-30T13:51:38;9.00;99.90
30648;DHT22;17683;53.360;9.736;2024-01-30T13:54:04;9.10;99.90
30648;DHT22;17683;53.360;9.736;2024-01-30T13:56:29;9.10;99.90
30648;DHT22;17683;53.360;9.736;2024-01-30T13:58:55;9.10;99.90
30648;DHT22;17683;53.360;9.736;2024-01-30T14:01:22;9.10;99.90
30648;DHT22;17683;53.360;9.736;2024-01-30T14:03:48;9.10;99.90
30648;DHT22;17683;53.360;9.736;2024-01-30T14:06:14;9.10;99.90
30648;DHT22;17683;53.360;9.736;2024-01-30T14:08:40;9.10;99.90
30648;DHT22;17683;53.360;9.736;2024-01-30T14:11:05;9.10;99.90
30648;DHT22;17683;53.360;9.736;2024-01-30T14:13:32;9.10;99.90
30648;DHT22;17683;53.360;9.736;2024-01-30T14:15:58;9.10;99.90
30648;DHT22;17683;53.360;9.736;2024-01-30T14:18:24;9.10;99.90
30648;DHT22;17683;53.360;9.736;2024-01-30T14:20:51;9.10;99.90
30648;DHT22;17683;53.360;9.736;2024-01-30T14:23:17;9.10;99.90
30648;DHT22;17683;53.360;9.736;2024-01-30T14:25:43;9.10;99.90
30648;DHT22;17683;53.360;9.736;2024-01-30T14:28:09;9.10;99.90
30648;DHT22;17683;53.360;9.736;2024-01-30T14:30:35;9.20;99.90
30648;DHT22;17683;53.360;9.736;2024-01-30T14:33:01;9.10;99.90
30648;DHT22;17683;53.360;9.736;2024-01-30T14:35:27;9.10;99.90
30648;DHT22;17683;53.360;9.736;2024-01-30T14:37:53;9.20;99.90
30648;DHT22;17683;53.360;9.736;2024-01-30T14:40:19;9.20;99.90
30648;DHT22;17683;53.360;9.736;2024-01-30T14:42:45;9.10;99.90
30648;DHT22;17683;53.360;9.736;2024-01-30T14:45:11;9.10;99.90
30648;DHT22;17683;53.360;9.736;2024-01-30T14:47:37;9.20;99.90
30648;DHT22;17683;53.360;9.736;2024-01-30T14:50:04;9.20;99.90
30648;DHT22;17683;53.360;9.736;2024-01-30T14:52:31;9.20;99.90
30648;DHT22;17683;53.360;9.736;2024-01-30T14:54:57;9.20;99.90
30648;DHT22;17683;53.360;9.736;2024-01-30T14:57:24;9.20;99.90
30648;DHT22;17683;53.360;9.736;2024-01-30T14:59:50;9.20;99.90
30648;DHT22;17683;53.360;9.736;2024-01-30T15:02:16;9.20;99.90
30648;DHT22;17683;53.360;9.736;2024-01-30T15:04:42;9.20;99.90
30648;DHT22;17683;53.360;9.736;2024-01-30T15:07:07;9.20;99.90
30648;DHT22;17683;53.360;9.736;2024-01-30T15:09:33;9.20;99.90
30648;DHT22;17683;53.360;9.736;2024-01-30T15:11:59;9.30;99.90
30648;DHT22;17683;53.360;9.736;2024-01-30T15:14:25;9.20;99.90
30648;DHT22;17683;53.360;9.736;2024-01-30T15:16:51;9.20;99.90
30648;DHT22;17683;53.360;9.736;2024-01-30T15:19:16;9.20;99.90
30648;DHT22;17683;53.360;9.736;2024-01-30T15:21:42;9.20;99.90
30648;DHT22;17683;53.360;9.736;2024-01-30T15:24:08;9.30;99.90
30648;DHT22;17683;53.360;9.736;2024-01-30T15:26:34;9.30;99.90
30648;DHT22;17683;53.360;9.736;2024-01-30T15:28:59;9.30;99.90
30648;DHT22;17683;53.360;9.736;2024-01-30T15:31:25;9.30;99.90
30648;DHT22;17683;53.360;9.736;2024-01-30T15:33:51;9.30;99.90
30648;DHT22;17683;53.360;9.736;2024-01-30T15:36:17;9.30;99.90
30648;DHT22;17683;53.360;9.736;2024-01-30T15:38:42;9.40;99.90
30648;DHT22;17683;53.360;9.736;2024-01-30T15:41:09;9.40;99.90